sensor_id;sensor_type;location;lat;lon;timestamp;pressure;altitude;pressure_sealevel;temperature;humidity
11345;BME280;5727;42.600;23.028;2023-06-26T00:01:30;93506.56;;;20.98;100.00
11345;BME280;5727;42.600;23.028;2023-06-26T00:03:58;93500.94;;;20.88;100.00
11345;BME280;5727;42.600;23.028;2023-06-26T00:06:25;93504.78;;;20.84;100.00
11345;BME280;5727;42.600;23.028;2023-06-26T00:08:52;93505.53;;;20.88;100.00
11345;BME280;5727;42.600;23.028;2023-06-26T00:11:21;93503.19;;;20.93;100.00
11345;BME280;5727;42.600;23.028;2023-06-26T00:13:48;93500.13;;;20.95;100.00
11345;BME280;5727;42.600;23.028;2023-06-26T00:16:15;93505.44;;;20.95;100.00
11345;BME280;5727;42.600;23.028;2023-06-26T00:18:42;93499.34;;;21.02;100.00
11345;BME280;5727;42.600;23.028;2023-06-26T00:21:09;93512.25;;;21.03;100.00
11345;BME280;5727;42.600;23.028;2023-06-26T00:23:36;93510.31;;;21.07;100.00
11345;BME280;5727;42.600;23.028;2023-06-26T00:26:03;93502.66;;;21.13;100.00
11345;BME280;5727;42.600;23.028;2023-06-26T00:28:32;93499.22;;;21.12;100.00
11345;BME280;5727;42.600;23.028;2023-06-26T00:30:59;93505.28;;;21.16;100.00
11345;BME280;5727;42.600;23.028;2023-06-26T00:33:26;93502.19;;;21.18;100.00
11345;BME280;5727;42.600;23.028;2023-06-26T00:35:53;93500.22;;;21.25;100.00
11345;BME280;5727;42.600;23.028;2023-06-26T00:38:20;93501.75;;;21.26;100.00
11345;BME280;5727;42.600;23.028;2023-06-26T00:40:47;93505.91;;;21.27;100.00
11345;BME280;5727;42.600;23.028;2023-06-26T00:43:14;93500.94;;;21.29;100.00
11345;BME280;5727;42.600;23.028;2023-06-26T00:45:42;93505.34;;;21.06;100.00
11345;BME280;5727;42.600;23.028;2023-06-26T00:48:10;93504.66;;;20.98;100.00
11345;BME280;5727;42.600;23.028;2023-06-26T00:50:38;93502.47;;;20.89;100.00
11345;BME280;5727;42.600;23.028;2023-06-26T00:53:05;93493.31;;;20.90;100.00
11345;BME280;5727;42.600;23.028;2023-06-26T00:55:32;93507.03;;;20.89;100.00
11345;BME280;5727;42.600;23.028;2023-06-26T00:57:59;93504.19;;;20.66;100.00
11345;BME280;5727;42.600;23.028;2023-06-26T01:00:26;93500.88;;;20.51;100.00
11345;BME280;5727;42.600;23.028;2023-06-26T01:02:54;93502.78;;;20.51;100.00
11345;BME280;5727;42.600;23.028;2023-06-26T01:05:24;93501.69;;;20.45;100.00
11345;BME280;5727;42.600;23.028;2023-06-26T01:07:51;93497.53;;;20.44;100.00
11345;BME280;5727;42.600;23.028;2023-06-26T01:10:19;93495.25;;;20.39;100.00
11345;BME280;5727;42.600;23.028;2023-06-26T01:12:46;93482.75;;;20.36;100.00
11345;BME280;5727;42.600;23.028;2023-06-26T01:15:12;93482.28;;;20.44;100.00
11345;BME280;5727;42.600;23.028;2023-06-26T01:17:40;93481.50;;;20.51;100.00
11345;BME280;5727;42.600;23.028;2023-06-26T01:20:12;93478.44;;;20.52;100.00
11345;BME280;5727;42.600;23.028;2023-06-26T01:22:47;93471.56;;;20.55;100.00
11345;BME280;5727;42.600;23.028;2023-06-26T01:25:22;93473.84;;;20.56;100.00
11345;BME280;5727;42.600;23.028;2023-06-26T01:27:57;93467.75;;;20.59;100.00
11345;BME280;5727;42.600;23.028;2023-06-26T01:30:25;93461.00;;;20.48;100.00
11345;BME280;5727;42.600;23.028;2023-06-26T01:32:52;93468.59;;;20.49;100.00
11345;BME280;5727;42.600;23.028;2023-06-26T01:35:19;93464.41;;;20.48;100.00
11345;BME280;5727;42.600;23.028;2023-06-26T01:37:46;93455.31;;;20.42;100.00
11345;BME280;5727;42.600;23.028;2023-06-26T01:40:12;93453.38;;;20.46;100.00
11345;BME280;5727;42.600;23.028;2023-06-26T01:42:39;93447.31;;;20.46;100.00
11345;BME280;5727;42.600;23.028;2023-06-26T01:45:13;93451.13;;;20.45;100.00
11345;BME280;5727;42.600;23.028;2023-06-26T01:47:46;93449.22;;;20.45;100.00
11345;BME280;5727;42.600;23.028;2023-06-26T01:50:19;93453.41;;;20.43;100.00
11345;BME280;5727;42.600;23.028;2023-06-26T01:52:54;93444.31;;;20.44;100.00
11345;BME280;5727;42.600;23.028;2023-06-26T01:55:32;93442.41;;;20.41;100.00
11345;BME280;5727;42.600;23.028;2023-06-26T01:58:01;93437.09;;;20.41;100.00
11345;BME280;5727;42.600;23.028;2023-06-26T02:00:30;93434.56;;;20.27;100.00
11345;BME280;5727;42.600;23.028;2023-06-26T02:02:58;93444.16;;;20.06;100.00
11345;BME280;5727;42.600;23.028;2023-06-26T02:05:25;93447.19;;;20.08;100.00
11345;BME280;5727;42.600;23.028;2023-06-26T02:07:52;93443.75;;;20.12;100.00
11345;BME280;5727;42.600;23.028;2023-06-26T02:10:19;93451.72;;;20.12;100.00
11345;BME280;5727;42.600;23.028;2023-06-26T02:12:46;93447.56;;;20.11;100.00
11345;BME280;5727;42.600;23.028;2023-06-26T02:15:12;93450.66;;;20.05;100.00
11345;BME280;5727;42.600;23.028;2023-06-26T02:17:41;93446.09;;;20.02;100.00
11345;BME280;5727;42.600;23.028;2023-06-26T02:20:08;93458.63;;;20.05;100.00
11345;BME280;5727;42.600;23.028;2023-06-26T02:22:35;93442.66;;;20.05;100.00
11345;BME280;5727;42.600;23.028;2023-06-26T02:25:02;93450.66;;;20.05;100.00
11345;BME280;5727;42.600;23.028;2023-06-26T02:27:29;93445.72;;;20.00;100.00
11345;BME280;5727;42.600;23.028;2023-06-26T02:29:56;93449.91;;;19.98;100.00
11345;BME280;5727;42.600;23.028;2023-06-26T02:32:22;93446.88;;;19.96;100.00
11345;BME280;5727;42.600;23.028;2023-06-26T02:34:50;93445.00;;;19.93;100.00
11345;BME280;5727;42.600;23.028;2023-06-26T02:37:18;93440.91;;;19.81;100.00
11345;BME280;5727;42.600;23.028;2023-06-26T02:39:44;93447.38;;;19.80;100.00
11345;BME280;5727;42.600;23.028;2023-06-26T02:42:11;93453.06;;;19.79;100.00
11345;BME280;5727;42.600;23.028;2023-06-26T02:44:38;93448.91;;;19.78;100.00
11345;BME280;5727;42.600;23.028;2023-06-26T02:47:06;93439.81;;;19.75;100.00
11345;BME280;5727;42.600;23.028;2023-06-26T02:49:33;93441.72;;;19.71;100.00
11345;BME280;5727;42.600;23.028;2023-06-26T02:52:01;93451.63;;;19.67;100.00
11345;BME280;5727;42.600;23.028;2023-06-26T02:54:28;93444.03;;;19.66;100.00
11345;BME280;5727;42.600;23.028;2023-06-26T02:56:54;93445.16;;;19.68;100.00
11345;BME280;5727;42.600;23.028;2023-06-26T02:59:21;93452.41;;;19.61;100.00
11345;BME280;5727;42.600;23.028;2023-06-26T03:01:48;93452.44;;;19.57;100.00
11345;BME280;5727;42.600;23.028;2023-06-26T03:04:15;93456.22;;;19.56;100.00
11345;BME280;5727;42.600;23.028;2023-06-26T03:06:43;93451.69;;;19.53;100.00
11345;BME280;5727;42.600;23.028;2023-06-26T03:09:11;93449.06;;;19.50;100.00
11345;BME280;5727;42.600;23.028;2023-06-26T03:11:37;93454.38;;;19.50;100.00
11345;BME280;5727;42.600;23.028;2023-06-26T03:14:04;93443.38;;;19.48;100.00
11345;BME280;5727;42.600;23.028;2023-06-26T03:16:31;93450.59;;;19.47;100.00
11345;BME280;5727;42.600;23.028;2023-06-26T03:18:58;93440.34;;;19.42;100.00
11345;BME280;5727;42.600;23.028;2023-06-26T03:21:24;93447.94;;;19.44;100.00
11345;BME280;5727;42.600;23.028;2023-06-26T03:23:51;93449.44;;;19.45;100.00
11345;BME280;5727;42.600;23.028;2023-06-26T03:26:19;93454.03;;;19.41;100.00
11345;BME280;5727;42.600;23.028;2023-06-26T03:28:52;93454.00;;;19.44;100.00
11345;BME280;5727;42.600;23.028;2023-06-26T03:31:19;93454.38;;;19.46;100.00
11345;BME280;5727;42.600;23.028;2023-06-26T03:33:46;93454.00;;;19.48;100.00
11345;BME280;5727;42.600;23.028;2023-06-26T03:36:13;93461.59;;;19.49;100.00
11345;BME280;5727;42.600;23.028;2023-06-26T03:38:40;93458.19;;;19.45;100.00
11345;BME280;5727;42.600;23.028;2023-06-26T03:41:07;93460.84;;;19.45;100.00
11345;BME280;5727;42.600;23.028;2023-06-26T03:43:35;93465.38;;;19.52;100.00
11345;BME280;5727;42.600;23.028;2023-06-26T03:46:02;93469.16;;;19.51;100.00
11345;BME280;5727;42.600;23.028;2023-06-26T03:48:29;93461.16;;;19.54;100.00
11345;BME280;5727;42.600;23.028;2023-06-26T03:50:55;93468.38;;;19.57;100.00
11345;BME280;5727;42.600;23.028;2023-06-26T03:53:22;93464.56;;;19.62;100.00
11345;BME280;5727;42.600;23.028;2023-06-26T03:55:49;93459.25;;;19.62;100.00
11345;BME280;5727;42.600;23.028;2023-06-26T03:58:15;93465.72;;;19.57;100.00
11345;BME280;5727;42.600;23.028;2023-06-26T04:00:44;93464.59;;;19.55;100.00
11345;BME280;5727;42.600;23.028;2023-06-26T04:03:12;93469.16;;;19.54;100.00
11345;BME280;5727;42.600;23.028;2023-06-26T04:05:39;93461.53;;;19.56;100.00
11345;BME280;5727;42.600;23.028;2023-06-26T04:08:06;93464.94;;;19.60;100.00
11345;BME280;5727;42.600;23.028;2023-06-26T04:10:32;93461.50;;;19.63;100.00
11345;BME280;5727;42.600;23.028;2023-06-26T04:12:59;93467.63;;;19.57;100.00
11345;BME280;5727;42.600;23.028;2023-06-26T04:15:26;93469.56;;;19.49;100.00
11345;BME280;5727;42.600;23.028;2023-06-26T04:17:54;93466.19;;;19.38;100.00
11345;BME280;5727;42.600;23.028;2023-06-26T04:20:21;93463.47;;;19.49;100.00
11345;BME280;5727;42.600;23.028;2023-06-26T04:22:47;93463.44;;;19.56;100.00
11345;BME280;5727;42.600;23.028;2023-06-26T04:25:14;93467.59;;;19.64;100.00
11345;BME280;5727;42.600;23.028;2023-06-26T04:27:41;93467.16;;;19.72;100.00
11345;BME280;5727;42.600;23.028;2023-06-26T04:30:09;93477.00;;;19.75;100.00
11345;BME280;5727;42.600;23.028;2023-06-26T04:32:36;93478.09;;;19.85;100.00
11345;BME280;5727;42.600;23.028;2023-06-26T04:35:04;93477.34;;;19.88;100.00
11345;BME280;5727;42.600;23.028;2023-06-26T04:37:31;93473.13;;;19.90;100.00
11345;BME280;5727;42.600;23.028;2023-06-26T04:39:58;93464.34;;;20.00;100.00
11345;BME280;5727;42.600;23.028;2023-06-26T04:42:24;93471.88;;;20.09;100.00
11345;BME280;5727;42.600;23.028;2023-06-26T04:44:51;93473.38;;;20.21;100.00
11345;BME280;5727;42.600;23.028;2023-06-26T04:47:18;93470.31;;;20.22;100.00
11345;BME280;5727;42.600;23.028;2023-06-26T04:49:45;93472.94;;;20.26;100.00
11345;BME280;5727;42.600;23.028;2023-06-26T04:52:13;93475.22;;;20.24;100.00
11345;BME280;5727;42.600;23.028;2023-06-26T04:54:43;93483.97;;;20.24;100.00
11345;BME280;5727;42.600;23.028;2023-06-26T04:57:10;93479.34;;;20.32;100.00
11345;BME280;5727;42.600;23.028;2023-06-26T04:59:37;93480.78;;;20.43;100.00
11345;BME280;5727;42.600;23.028;2023-06-26T05:02:04;93484.94;;;20.44;100.00
11345;BME280;5727;42.600;23.028;2023-06-26T05:04:31;93482.28;;;20.48;100.00
11345;BME280;5727;42.600;23.028;2023-06-26T05:06:58;93479.13;;;20.60;100.00
11345;BME280;5727;42.600;23.028;2023-06-26T05:09:26;93485.09;;;20.71;100.00
11345;BME280;5727;42.600;23.028;2023-06-26T05:11:53;93486.94;;;20.81;100.00
11345;BME280;5727;42.600;23.028;2023-06-26T05:14:19;93492.97;;;20.85;100.00
11345;BME280;5727;42.600;23.028;2023-06-26T05:16:46;93488.81;;;20.84;100.00
11345;BME280;5727;42.600;23.028;2023-06-26T05:19:13;93483.34;;;21.02;100.00
11345;BME280;5727;42.600;23.028;2023-06-26T05:21:40;93484.69;;;21.20;100.00
11345;BME280;5727;42.600;23.028;2023-06-26T05:24:09;93492.91;;;21.33;100.00
11345;BME280;5727;42.600;23.028;2023-06-26T05:26:39;93486.78;;;21.36;100.00
11345;BME280;5727;42.600;23.028;2023-06-26T05:29:06;93488.91;;;21.48;100.00
11345;BME280;5727;42.600;23.028;2023-06-26T05:31:33;93488.34;;;21.63;100.00
11345;BME280;5727;42.600;23.028;2023-06-26T05:34:03;93481.75;;;21.75;100.00
11345;BME280;5727;42.600;23.028;2023-06-26T05:36:31;93488.75;;;21.96;100.00
11345;BME280;5727;42.600;23.028;2023-06-26T05:39:00;93493.16;;;22.06;100.00
11345;BME280;5727;42.600;23.028;2023-06-26T05:41:28;93503.53;;;22.27;100.00
11345;BME280;5727;42.600;23.028;2023-06-26T05:43:56;93500.31;;;22.39;100.00
11345;BME280;5727;42.600;23.028;2023-06-26T05:46:23;93498.34;;;22.43;100.00
11345;BME280;5727;42.600;23.028;2023-06-26T05:48:49;93498.53;;;22.59;100.00
11345;BME280;5727;42.600;23.028;2023-06-26T05:51:17;93504.97;;;22.61;100.00
11345;BME280;5727;42.600;23.028;2023-06-26T05:53:44;93505.38;;;22.60;100.00
11345;BME280;5727;42.600;23.028;2023-06-26T05:56:11;93508.69;;;22.41;100.00
11345;BME280;5727;42.600;23.028;2023-06-26T05:58:39;93501.50;;;22.38;100.00
11345;BME280;5727;42.600;23.028;2023-06-26T06:01:08;93502.28;;;22.35;100.00
11345;BME280;5727;42.600;23.028;2023-06-26T06:03:35;93508.34;;;22.39;100.00
11345;BME280;5727;42.600;23.028;2023-06-26T06:06:03;93509.41;;;22.18;100.00
11345;BME280;5727;42.600;23.028;2023-06-26T06:08:30;93506.78;;;21.84;100.00
11345;BME280;5727;42.600;23.028;2023-06-26T06:10:56;93502.28;;;21.78;100.00
11345;BME280;5727;42.600;23.028;2023-06-26T06:13:23;93503.47;;;21.73;100.00
11345;BME280;5727;42.600;23.028;2023-06-26T06:15:50;93508.25;;;21.89;100.00
11345;BME280;5727;42.600;23.028;2023-06-26T06:18:18;93497.94;;;21.91;100.00
11345;BME280;5727;42.600;23.028;2023-06-26T06:20:44;93501.75;;;21.90;100.00
11345;BME280;5727;42.600;23.028;2023-06-26T06:23:11;93503.78;;;21.79;100.00
11345;BME280;5727;42.600;23.028;2023-06-26T06:25:38;93494.16;;;21.89;100.00
11345;BME280;5727;42.600;23.028;2023-06-26T06:28:05;93496.66;;;22.03;100.00
11345;BME280;5727;42.600;23.028;2023-06-26T06:30:32;93496.25;;;22.31;100.00
11345;BME280;5727;42.600;23.028;2023-06-26T06:32:58;93499.13;;;22.43;100.00
11345;BME280;5727;42.600;23.028;2023-06-26T06:35:27;93495.84;;;22.59;100.00
11345;BME280;5727;42.600;23.028;2023-06-26T06:37:53;93489.91;;;22.71;100.00
11345;BME280;5727;42.600;23.028;2023-06-26T06:40:20;93495.31;;;22.91;100.00
11345;BME280;5727;42.600;23.028;2023-06-26T06:42:48;93493.63;;;23.00;100.00
11345;BME280;5727;42.600;23.028;2023-06-26T06:45:15;93499.19;;;23.09;100.00
11345;BME280;5727;42.600;23.028;2023-06-26T06:47:41;93493.56;;;23.04;100.00
11345;BME280;5727;42.600;23.028;2023-06-26T06:50:08;93492.84;;;23.03;100.00
11345;BME280;5727;42.600;23.028;2023-06-26T06:52:37;93500.25;;;22.69;100.00
11345;BME280;5727;42.600;23.028;2023-06-26T06:55:07;93498.81;;;22.64;100.00
11345;BME280;5727;42.600;23.028;2023-06-26T06:57:35;93494.00;;;22.52;100.00
11345;BME280;5727;42.600;23.028;2023-06-26T07:00:04;93482.28;;;22.46;100.00
11345;BME280;5727;42.600;23.028;2023-06-26T07:02:34;93495.50;;;22.57;100.00
11345;BME280;5727;42.600;23.028;2023-06-26T07:05:00;93493.00;;;22.69;100.00
11345;BME280;5727;42.600;23.028;2023-06-26T07:07:29;93489.47;;;22.76;100.00
11345;BME280;5727;42.600;23.028;2023-06-26T07:09:58;93493.00;;;22.69;100.00
11345;BME280;5727;42.600;23.028;2023-06-26T07:12:25;93490.28;;;22.73;100.00
11345;BME280;5727;42.600;23.028;2023-06-26T07:14:52;93489.47;;;22.76;100.00
11345;BME280;5727;42.600;23.028;2023-06-26T07:17:19;93510.50;;;22.74;100.00
11345;BME280;5727;42.600;23.028;2023-06-26T07:19:46;93498.88;;;22.61;100.00
11345;BME280;5727;42.600;23.028;2023-06-26T07:22:13;93499.78;;;22.24;100.00
11345;BME280;5727;42.600;23.028;2023-06-26T07:24:40;93500.88;;;22.00;100.00
11345;BME280;5727;42.600;23.028;2023-06-26T07:27:08;93500.44;;;22.05;100.00
11345;BME280;5727;42.600;23.028;2023-06-26T07:29:34;93496.78;;;21.92;100.00
11345;BME280;5727;42.600;23.028;2023-06-26T07:32:01;93505.44;;;22.00;100.00
11345;BME280;5727;42.600;23.028;2023-06-26T07:34:28;93497.25;;;22.14;100.00
11345;BME280;5727;42.600;23.028;2023-06-26T07:36:55;93506.41;;;22.39;100.00
11345;BME280;5727;42.600;23.028;2023-06-26T07:39:21;93502.28;;;22.35;100.00
11345;BME280;5727;42.600;23.028;2023-06-26T07:41:48;93501.63;;;22.27;100.00
11345;BME280;5727;42.600;23.028;2023-06-26T07:44:16;93509.28;;;22.25;100.00
11345;BME280;5727;42.600;23.028;2023-06-26T07:46:43;93524.13;;;22.00;100.00
11345;BME280;5727;42.600;23.028;2023-06-26T07:49:11;93508.34;;;21.78;100.00
11345;BME280;5727;42.600;23.028;2023-06-26T07:51:38;93511.22;;;21.64;100.00
11345;BME280;5727;42.600;23.028;2023-06-26T07:54:05;93520.41;;;21.60;100.00
11345;BME280;5727;42.600;23.028;2023-06-26T07:56:34;93512.72;;;21.65;100.00
11345;BME280;5727;42.600;23.028;2023-06-26T07:59:01;93506.25;;;21.66;100.00
11345;BME280;5727;42.600;23.028;2023-06-26T08:01:31;93510.97;;;21.86;100.00
11345;BME280;5727;42.600;23.028;2023-06-26T08:03:57;93509.88;;;21.79;100.00
11345;BME280;5727;42.600;23.028;2023-06-26T08:06:24;93513.66;;;21.86;100.00
11345;BME280;5727;42.600;23.028;2023-06-26T08:08:51;93503.94;;;21.99;100.00
11345;BME280;5727;42.600;23.028;2023-06-26T08:11:18;93507.88;;;22.17;100.00
11345;BME280;5727;42.600;23.028;2023-06-26T08:13:44;93502.47;;;22.24;100.00
11345;BME280;5727;42.600;23.028;2023-06-26T08:16:11;93495.34;;;22.41;100.00
11345;BME280;5727;42.600;23.028;2023-06-26T08:18:39;93488.06;;;22.68;100.00
11345;BME280;5727;42.600;23.028;2023-06-26T08:21:06;93501.53;;;22.34;100.00
11345;BME280;5727;42.600;23.028;2023-06-26T08:23:35;93517.50;;;22.38;100.00
11345;BME280;5727;42.600;23.028;2023-06-26T08:26:01;93514.75;;;22.18;100.00
11345;BME280;5727;42.600;23.028;2023-06-26T08:28:28;93510.09;;;22.22;100.00
11345;BME280;5727;42.600;23.028;2023-06-26T08:30:55;93513.06;;;22.28;100.00
11345;BME280;5727;42.600;23.028;2023-06-26T08:33:21;93509.59;;;22.31;100.00
11345;BME280;5727;42.600;23.028;2023-06-26T08:35:50;93520.63;;;22.33;100.00
11345;BME280;5727;42.600;23.028;2023-06-26T08:38:16;93512.97;;;22.35;100.00
11345;BME280;5727;42.600;23.028;2023-06-26T08:40:43;93510.22;;;22.65;100.00
11345;BME280;5727;42.600;23.028;2023-06-26T08:43:10;93513.88;;;22.78;100.00
11345;BME280;5727;42.600;23.028;2023-06-26T08:45:37;93511.56;;;22.77;100.00
11345;BME280;5727;42.600;23.028;2023-06-26T08:48:07;93507.47;;;22.95;100.00
11345;BME280;5727;42.600;23.028;2023-06-26T08:50:35;93498.47;;;23.28;100.00
11345;BME280;5727;42.600;23.028;2023-06-26T08:53:13;93511.94;;;23.44;99.91
11345;BME280;5727;42.600;23.028;2023-06-26T08:55:43;93510.25;;;23.54;95.61
11345;BME280;5727;42.600;23.028;2023-06-26T08:58:10;93509.06;;;23.75;93.89
11345;BME280;5727;42.600;23.028;2023-06-26T09:00:38;93512.09;;;23.37;100.00
11345;BME280;5727;42.600;23.028;2023-06-26T09:03:05;93507.78;;;23.20;100.00
11345;BME280;5727;42.600;23.028;2023-06-26T09:05:32;93506.53;;;23.05;100.00
11345;BME280;5727;42.600;23.028;2023-06-26T09:07:59;93508.66;;;23.14;100.00
11345;BME280;5727;42.600;23.028;2023-06-26T09:10:27;93500.19;;;22.96;100.00
11345;BME280;5727;42.600;23.028;2023-06-26T09:12:55;93496.31;;;23.00;100.00
11345;BME280;5727;42.600;23.028;2023-06-26T09:15:22;93502.88;;;23.38;100.00
11345;BME280;5727;42.600;23.028;2023-06-26T09:17:49;93507.03;;;23.63;100.00
11345;BME280;5727;42.600;23.028;2023-06-26T09:20:16;93518.06;;;23.65;99.44
11345;BME280;5727;42.600;23.028;2023-06-26T09:22:47;93509.41;;;23.37;100.00
11345;BME280;5727;42.600;23.028;2023-06-26T09:25:14;93507.84;;;23.59;100.00
11345;BME280;5727;42.600;23.028;2023-06-26T09:27:42;93496.69;;;23.65;98.98
11345;BME280;5727;42.600;23.028;2023-06-26T09:30:10;93502.22;;;23.74;97.75
11345;BME280;5727;42.600;23.028;2023-06-26T09:32:37;93505.47;;;24.01;89.87
11345;BME280;5727;42.600;23.028;2023-06-26T09:35:04;93495.47;;;24.05;87.56
11345;BME280;5727;42.600;23.028;2023-06-26T09:37:32;93498.56;;;23.84;96.45
11345;BME280;5727;42.600;23.028;2023-06-26T09:39:59;93493.16;;;23.68;99.78
11345;BME280;5727;42.600;23.028;2023-06-26T09:42:26;93485.41;;;23.73;100.00
11345;BME280;5727;42.600;23.028;2023-06-26T09:44:54;93502.75;;;23.65;99.75
11345;BME280;5727;42.600;23.028;2023-06-26T09:47:21;93507.63;;;23.50;97.24
11345;BME280;5727;42.600;23.028;2023-06-26T09:49:48;93493.09;;;23.51;98.97
11345;BME280;5727;42.600;23.028;2023-06-26T09:52:16;93493.44;;;23.53;97.74
11345;BME280;5727;42.600;23.028;2023-06-26T09:54:44;93498.59;;;23.64;98.78
11345;BME280;5727;42.600;23.028;2023-06-26T09:57:12;93495.03;;;23.51;99.21
11345;BME280;5727;42.600;23.028;2023-06-26T09:59:40;93488.56;;;23.68;100.00
11345;BME280;5727;42.600;23.028;2023-06-26T10:02:08;93499.13;;;23.75;98.88
11345;BME280;5727;42.600;23.028;2023-06-26T10:04:36;93491.28;;;23.84;95.43
11345;BME280;5727;42.600;23.028;2023-06-26T10:07:08;93488.75;;;23.77;97.13
11345;BME280;5727;42.600;23.028;2023-06-26T10:09:38;93488.84;;;23.74;95.27
11345;BME280;5727;42.600;23.028;2023-06-26T10:12:11;93497.22;;;23.56;89.86
11345;BME280;5727;42.600;23.028;2023-06-26T10:14:41;93505.84;;;23.44;88.04
11345;BME280;5727;42.600;23.028;2023-06-26T10:17:10;93498.31;;;23.58;89.17
11345;BME280;5727;42.600;23.028;2023-06-26T10:19:41;93497.41;;;23.65;91.85
11345;BME280;5727;42.600;23.028;2023-06-26T10:22:12;93502.03;;;23.65;92.19
11345;BME280;5727;42.600;23.028;2023-06-26T10:24:41;93500.03;;;23.69;92.00
11345;BME280;5727;42.600;23.028;2023-06-26T10:27:11;93488.66;;;23.65;90.88
11345;BME280;5727;42.600;23.028;2023-06-26T10:29:41;93489.88;;;23.80;91.69
11345;BME280;5727;42.600;23.028;2023-06-26T10:32:12;93477.91;;;23.84;95.57
11345;BME280;5727;42.600;23.028;2023-06-26T10:34:39;93482.44;;;23.87;95.01
11345;BME280;5727;42.600;23.028;2023-06-26T10:37:06;93487.97;;;23.60;95.60
11345;BME280;5727;42.600;23.028;2023-06-26T10:39:46;93477.13;;;23.68;94.52
11345;BME280;5727;42.600;23.028;2023-06-26T10:42:14;93487.13;;;23.63;92.22
11345;BME280;5727;42.600;23.028;2023-06-26T10:44:42;93479.06;;;23.47;91.96
11345;BME280;5727;42.600;23.028;2023-06-26T10:47:11;93488.50;;;23.72;92.93
11345;BME280;5727;42.600;23.028;2023-06-26T10:49:38;93466.41;;;23.68;91.84
11345;BME280;5727;42.600;23.028;2023-06-26T10:52:06;93466.56;;;23.80;90.73
11345;BME280;5727;42.600;23.028;2023-06-26T10:54:33;93468.81;;;23.98;91.50
11345;BME280;5727;42.600;23.028;2023-06-26T10:57:01;93474.59;;;24.16;88.89
11345;BME280;5727;42.600;23.028;2023-06-26T10:59:30;93466.06;;;23.85;88.02
11345;BME280;5727;42.600;23.028;2023-06-26T11:01:58;93460.44;;;23.80;88.73
11345;BME280;5727;42.600;23.028;2023-06-26T11:04:43;93462.97;;;23.87;88.25
11345;BME280;5727;42.600;23.028;2023-06-26T11:07:21;93468.66;;;23.89;83.70
11345;BME280;5727;42.600;23.028;2023-06-26T11:09:55;93472.34;;;24.14;83.49
11345;BME280;5727;42.600;23.028;2023-06-26T11:12:36;93461.22;;;24.48;81.94
11345;BME280;5727;42.600;23.028;2023-06-26T11:15:04;93462.72;;;24.65;80.25
11345;BME280;5727;42.600;23.028;2023-06-26T11:17:34;93462.97;;;24.71;78.89
11345;BME280;5727;42.600;23.028;2023-06-26T11:20:03;93465.75;;;24.83;76.69
11345;BME280;5727;42.600;23.028;2023-06-26T11:22:33;93454.53;;;24.88;77.14
11345;BME280;5727;42.600;23.028;2023-06-26T11:25:01;93465.16;;;24.92;73.87
11345;BME280;5727;42.600;23.028;2023-06-26T11:27:31;93457.28;;;24.69;73.29
11345;BME280;5727;42.600;23.028;2023-06-26T11:29:58;93455.81;;;24.84;71.07
11345;BME280;5727;42.600;23.028;2023-06-26T11:32:26;93456.75;;;25.34;71.22
11345;BME280;5727;42.600;23.028;2023-06-26T11:34:53;93442.00;;;25.84;69.75
11345;BME280;5727;42.600;23.028;2023-06-26T11:37:21;93440.69;;;26.89;63.64
11345;BME280;5727;42.600;23.028;2023-06-26T11:39:48;93453.53;;;27.28;62.15
11345;BME280;5727;42.600;23.028;2023-06-26T11:42:15;93441.66;;;26.82;64.58
11345;BME280;5727;42.600;23.028;2023-06-26T11:44:42;93448.38;;;28.38;58.57
11345;BME280;5727;42.600;23.028;2023-06-26T11:47:12;93458.19;;;29.21;52.96
11345;BME280;5727;42.600;23.028;2023-06-26T11:49:42;93442.31;;;28.56;57.27
11345;BME280;5727;42.600;23.028;2023-06-26T11:52:09;93445.91;;;27.91;59.41
11345;BME280;5727;42.600;23.028;2023-06-26T11:54:37;93446.13;;;28.76;56.58
11345;BME280;5727;42.600;23.028;2023-06-26T11:57:04;93437.88;;;30.39;49.31
11345;BME280;5727;42.600;23.028;2023-06-26T11:59:33;93446.75;;;31.58;44.64
11345;BME280;5727;42.600;23.028;2023-06-26T12:02:04;93450.72;;;32.15;42.14
11345;BME280;5727;42.600;23.028;2023-06-26T12:04:32;93447.91;;;31.04;43.32
11345;BME280;5727;42.600;23.028;2023-06-26T12:07:01;93454.28;;;29.31;50.82
11345;BME280;5727;42.600;23.028;2023-06-26T12:09:31;93459.06;;;28.51;52.85
11345;BME280;5727;42.600;23.028;2023-06-26T12:12:01;93450.25;;;27.46;58.52
11345;BME280;5727;42.600;23.028;2023-06-26T12:14:28;93445.75;;;27.64;59.37
11345;BME280;5727;42.600;23.028;2023-06-26T12:16:55;93444.25;;;29.31;54.24
11345;BME280;5727;42.600;23.028;2023-06-26T12:19:25;93443.19;;;29.47;49.71
11345;BME280;5727;42.600;23.028;2023-06-26T12:21:52;93437.28;;;28.27;54.34
11345;BME280;5727;42.600;23.028;2023-06-26T12:24:23;93443.78;;;27.22;59.99
11345;BME280;5727;42.600;23.028;2023-06-26T12:26:52;93440.69;;;26.76;64.32
11345;BME280;5727;42.600;23.028;2023-06-26T12:29:29;93439.63;;;26.61;66.87
11345;BME280;5727;42.600;23.028;2023-06-26T12:31:58;93446.00;;;26.42;67.67
11345;BME280;5727;42.600;23.028;2023-06-26T12:34:31;93439.13;;;26.16;68.10
11345;BME280;5727;42.600;23.028;2023-06-26T12:37:00;93443.13;;;26.24;65.78
11345;BME280;5727;42.600;23.028;2023-06-26T12:39:28;93436.91;;;27.21;62.23
11345;BME280;5727;42.600;23.028;2023-06-26T12:42:00;93440.25;;;27.46;58.79
11345;BME280;5727;42.600;23.028;2023-06-26T12:44:30;93441.41;;;27.24;60.98
11345;BME280;5727;42.600;23.028;2023-06-26T12:46:59;93441.06;;;27.99;56.77
11345;BME280;5727;42.600;23.028;2023-06-26T12:49:30;93440.41;;;28.26;56.75
11345;BME280;5727;42.600;23.028;2023-06-26T12:51:58;93437.72;;;28.74;56.49
11345;BME280;5727;42.600;23.028;2023-06-26T12:54:24;93434.09;;;28.68;55.38
11345;BME280;5727;42.600;23.028;2023-06-26T12:56:51;93438.69;;;29.17;53.67